KDBN/DBN METAR and TAF weather

Enter ICAO airport designator
Station Type Date Time Source
KDBN METAR 2021/05/14 14:15 UTC NOAA

KDBN 141415Z AUTO 09004KT 10SM CLR 21/08 A3030 RMK AO2


Station Type Date Time Source
KDBN Decoded METAR 2021/05/14 14:15 UTC NOAA

Dublin, W H 'Bud' Barron Airport, GA, United States (KDBN) 32-33-52N 082-59-06W
May 14, 2021 - 10:15 AM EDT / 2021.05.14 1415 UTC
Wind: from the E (090 degrees) at 5 MPH (4 KT):0
Visibility: 10 mile(s):0
Sky conditions: clear
Temperature: 69 F (21 C)
Dew Point: 46 F (8 C)
Relative Humidity: 43%
Pressure (altimeter): 30.3 in. Hg (1026 hPa)
ob: KDBN 141415Z AUTO 09004KT 10SM CLR 21/08 A3030 RMK AO2
cycle: 14

Station Type Date Time Source
KDBN TAF UTC NOAA

Error!

Example: see airport list